Terminal Aerodrome Forecast
Issued by NWS

Home | Current Version | Previous Version | Text Only | Print | Product List | Glossary On
Versions: 1 2 3 4 5 6 7 8 9 10 11 12 13 14 15 16 17 18 19 20 21 22
000
FTUS42 KFFC 012323
TAFFTY
TAF
KFTY 012323Z 0200/0224 23003KT P6SM VCSH OVC040
     FM020400 00000KT P6SM SCT035 BKN250
     FM021000 00000KT 4SM BR SCT015 BKN250
     FM021500 22006KT P6SM SCT040 BKN150 PROB30 0220/0224 4SM TSRA
      BR BKN025CB=

USA.gov is the U.S. government's official web portal to all federal, state and local government web resources and services.